Time;durP1;ratioP1;P1;durP2;ratioP2;P2;SDS_P1;SDS_P2;PMS_P1;PMS_P2;Temp;Humidity;BMP_temperature;BMP_pressure;BME280_temperature;BME280_humidity;BME280_pressure;Samples;Min_cycle;Max_cycle;Signal;HPM_P1;HPM_P2
2021/03/22 00:00:45;;;;;;;19.77;5.85;;;;;;;2.89;74.46;99148.50;5000907;28;20033;-75
2021/03/22 00:03:12;;;;;;;26.85;4.90;;;;;;;2.91;74.55;99146.53;5006482;28;20084;-75
2021/03/22 00:05:38;;;;;;;19.40;4.45;;;;;;;2.88;74.27;99140.63;5030644;28;20446;-75
2021/03/22 00:08:05;;;;;;;19.73;4.68;;;;;;;2.98;73.85;99154.81;5016601;28;20087;-75
2021/03/22 00:10:32;;;;;;;26.10;4.30;;;;;;;2.96;73.25;99141.59;5016373;28;20022;-75
2021/03/22 00:12:58;;;;;;;15.38;3.53;;;;;;;3.06;72.22;99133.53;4993676;28;20030;-75
2021/03/22 00:15:25;;;;;;;26.73;3.78;;;;;;;3.21;71.90;99153.44;5014170;28;20453;-75
2021/03/22 00:17:50;;;;;;;15.63;3.80;;;;;;;3.19;71.65;99152.75;5015466;28;20041;-75
2021/03/22 00:20:17;;;;;;;30.60;4.25;;;;;;;3.24;71.17;99147.78;5013231;28;20030;-75
2021/03/22 00:22:42;;;;;;;25.73;3.63;;;;;;;3.32;71.52;99154.25;5024865;28;20163;-75
2021/03/22 00:25:08;;;;;;;21.00;5.38;;;;;;;3.39;70.63;99141.97;5023325;28;20101;-75
2021/03/22 00:27:34;;;;;;;20.00;3.30;;;;;;;3.38;70.61;99154.50;5033945;28;20052;-75
2021/03/22 00:29:59;;;;;;;22.13;3.60;;;;;;;3.25;70.41;99129.94;5029245;28;20013;-75
2021/03/22 00:32:25;;;;;;;22.63;3.08;;;;;;;3.33;70.31;99131.84;5018082;28;20030;-75
2021/03/22 00:34:50;;;;;;;19.90;3.20;;;;;;;3.38;70.23;99140.25;5023859;28;20425;-75
2021/03/22 00:37:15;;;;;;;15.63;2.70;;;;;;;3.41;69.62;99130.13;5034321;28;20112;-75
2021/03/22 00:39:41;;;;;;;14.88;3.08;;;;;;;3.39;69.70;99139.28;5033541;28;20025;-75
2021/03/22 00:42:07;;;;;;;23.13;3.45;;;;;;;3.50;69.33;99147.94;5015601;28;20479;-75
2021/03/22 00:44:32;;;;;;;12.52;2.95;;;;;;;3.42;69.24;99136.31;5022519;28;20471;-75
2021/03/22 00:46:57;;;;;;;20.38;3.67;;;;;;;3.45;69.65;99125.31;5033971;28;20072;-75
2021/03/22 00:49:23;;;;;;;14.43;3.13;;;;;;;3.52;69.79;99131.75;5033906;28;20030;-75
2021/03/22 00:51:48;;;;;;;23.30;2.90;;;;;;;3.39;69.93;99125.91;5022501;28;20036;-75
2021/03/22 00:54:14;;;;;;;19.63;3.53;;;;;;;3.53;70.13;99136.09;5018718;28;20028;-75
2021/03/22 00:56:40;;;;;;;18.58;3.58;;;;;;;3.49;70.18;99146.25;4987827;28;20033;-75
2021/03/22 00:59:05;;;;;;;12.95;2.72;;;;;;;3.35;70.47;99114.66;4994463;28;20022;-75
2021/03/22 01:01:30;;;;;;;18.50;2.95;;;;;;;3.43;69.63;99132.63;4994689;28;20045;-75
2021/03/22 01:03:56;;;;;;;18.65;3.20;;;;;;;3.35;70.13;99122.69;5010056;28;20021;-75
2021/03/22 01:06:21;;;;;;;24.17;3.53;;;;;;;3.32;70.58;99116.81;5013732;28;20395;-75
2021/03/22 01:08:47;;;;;;;16.95;3.38;;;;;;;3.32;70.23;99124.81;5012746;28;20479;-75
2021/03/22 01:11:18;;;;;;;13.60;2.58;;;;;;;3.50;69.59;99133.72;4993859;28;20076;-75
2021/03/22 01:13:49;;;;;;;20.33;3.17;;;;;;;3.40;69.68;99135.63;5038993;28;20356;-75
2021/03/22 01:16:16;;;;;;;16.27;2.97;;;;;;;3.42;70.18;99137.16;5023715;28;20073;-75
2021/03/22 01:18:46;;;;;;;15.40;3.08;;;;;;;3.43;69.88;99133.50;5038737;28;20044;-75
2021/03/22 01:21:39;;;;;;;19.15;2.90;;;;;;;3.46;68.89;99135.88;5029739;28;20032;-75
2021/03/22 01:24:07;;;;;;;14.68;2.65;;;;;;;3.41;69.46;99127.44;5017270;28;20037;-75
2021/03/22 01:26:35;;;;;;;24.48;3.35;;;;;;;3.40;69.59;99132.94;5034216;28;20029;-75
2021/03/22 01:29:15;;;;;;;15.52;2.88;;;;;;;3.22;69.87;99117.72;5022755;28;20034;-75
2021/03/22 01:31:41;;;;;;;17.33;3.42;;;;;;;3.18;69.58;99118.16;5036275;28;20475;-75
2021/03/22 01:34:06;;;;;;;17.50;2.78;;;;;;;3.26;69.71;99123.59;5040079;28;20032;-75
2021/03/22 01:36:33;;;;;;;16.08;3.00;;;;;;;3.26;69.45;99120.91;5037805;28;20025;-75
2021/03/22 01:39:08;;;;;;;16.88;3.35;;;;;;;3.21;69.44;99128.53;5027798;28;20030;-75
2021/03/22 01:41:57;;;;;;;21.30;2.75;;;;;;;3.23;68.91;99115.88;5021900;28;20403;-75
2021/03/22 01:44:34;;;;;;;19.47;2.53;;;;;;;3.05;70.09;99099.78;5001303;28;20044;-75
2021/03/22 01:47:19;;;;;;;15.98;2.30;;;;;;;3.18;69.38;99118.16;5034383;28;20029;-75
2021/03/22 01:49:50;;;;;;;27.48;3.08;;;;;;;3.11;69.88;99111.69;5040280;28;20087;-75
2021/03/22 01:52:16;;;;;;;21.10;3.30;;;;;;;3.14;69.03;99103.38;5038766;28;20545;-75
2021/03/22 01:54:42;;;;;;;19.92;3.25;;;;;;;3.12;69.26;99108.91;5039151;28;20027;-75
2021/03/22 01:57:33;;;;;;;14.65;2.70;;;;;;;3.16;69.08;99107.59;5021956;28;20079;-75
2021/03/22 02:00:14;;;;;;;20.17;2.67;;;;;;;3.12;69.61;99100.88;5019310;28;20171;-75
2021/03/22 02:02:41;;;;;;;19.70;2.70;;;;;;;3.12;69.28;99108.91;5038543;28;20436;-75
2021/03/22 02:05:10;;;;;;;17.40;2.35;;;;;;;3.15;69.12;99097.91;5039639;28;20057;-75
2021/03/22 02:07:35;;;;;;;19.88;2.60;;;;;;;3.11;69.60;99107.19;5001816;28;20483;-76
2021/03/22 02:10:01;;;;;;;11.70;2.33;;;;;;;3.02;69.32;99108.94;5019765;28;20025;-75
2021/03/22 02:12:29;;;;;;;17.63;2.47;;;;;;;3.05;69.03;99087.25;5018759;28;20038;-75
2021/03/22 02:14:54;;;;;;;17.98;2.83;;;;;;;3.05;68.99;99094.44;5019604;28;20025;-75
2021/03/22 02:17:35;;;;;;;19.70;3.08;;;;;;;3.07;69.13;99105.81;5019961;28;20022;-75
2021/03/22 02:20:13;;;;;;;14.32;2.55;;;;;;;3.14;68.91;99122.94;5036806;28;20479;-75
2021/03/22 02:23:22;;;;;;;19.75;2.65;;;;;;;3.17;68.58;99122.66;5024861;28;20029;-75
2021/03/22 02:26:01;;;;;;;19.73;2.67;;;;;;;3.12;68.95;99116.91;5036781;28;20033;-75
2021/03/22 02:28:54;;;;;;;8.98;2.22;;;;;;;3.16;68.45;99130.81;5007982;28;20030;-75
2021/03/22 02:31:43;;;;;;;19.85;2.40;;;;;;;3.08;68.60;99132.38;5030531;28;20025;-75
2021/03/22 02:34:22;;;;;;;13.20;1.70;;;;;;;3.13;68.21;99131.13;5024002;28;20042;-75
2021/03/22 02:37:05;;;;;;;11.57;1.88;;;;;;;3.13;68.07;99125.78;5025536;28;20021;-75
2021/03/22 02:39:37;;;;;;;12.75;2.08;;;;;;;3.04;68.46;99122.16;5021431;28;20036;-75
2021/03/22 02:42:06;;;;;;;19.25;2.13;;;;;;;3.03;67.63;99110.59;5005860;28;20491;-75
2021/03/22 02:44:35;;;;;;;17.02;1.98;;;;;;;3.14;67.72;99122.94;4999760;28;20048;-75
2021/03/22 02:47:07;;;;;;;;;;;;;;;3.11;67.26;99123.22;5021074;28;20029;-75
2021/03/22 02:49:37;;;;;;;12.98;1.88;;;;;;;3.11;67.59;99128.56;5023895;28;20283;-75
2021/03/22 02:52:39;;;;;;;18.00;2.30;;;;;;;3.15;67.34;99129.97;5016614;28;20369;-75
2021/03/22 02:55:34;;;;;;;19.77;2.53;;;;;;;3.09;66.60;99117.19;5006884;28;20026;-75
2021/03/22 02:58:07;;;;;;;19.45;2.03;;;;;;;3.13;66.76;99128.44;4996425;28;20019;-75
2021/03/22 03:00:39;;;;;;;15.70;1.90;;;;;;;3.17;65.75;99127.13;5012702;28;20022;-75
2021/03/22 03:03:09;;;;;;;12.45;1.98;;;;;;;3.18;65.28;99135.03;5010514;28;20056;-75
2021/03/22 03:05:36;;;;;;;18.15;2.15;;;;;;;3.21;64.63;99133.88;5017960;28;20037;-75
2021/03/22 03:08:13;;;;;;;13.55;2.00;;;;;;;3.08;64.66;99128.88;5011361;28;20080;-75
2021/03/22 03:10:38;;;;;;;9.45;1.70;;;;;;;3.12;64.22;99116.03;5023248;28;20025;-76
2021/03/22 03:13:04;;;;;;;14.75;1.70;;;;;;;3.12;64.81;99129.41;5034122;28;20539;-76
2021/03/22 03:15:30;;;;;;;9.63;1.92;;;;;;;3.10;63.32;99126.06;5016262;28;20120;-76
2021/03/22 03:17:55;;;;;;;9.68;1.73;;;;;;;3.08;63.11;99128.88;5011918;28;20057;-76
2021/03/22 03:20:26;;;;;;;13.27;1.83;;;;;;;3.15;63.36;99134.50;5020842;28;20030;-76
2021/03/22 03:22:52;;;;;;;10.70;1.70;;;;;;;3.20;62.18;99140.22;5020610;28;20033;-76
2021/03/22 03:25:19;;;;;;;16.13;2.33;;;;;;;3.28;62.08;99145.69;5014227;28;20022;-76
2021/03/22 03:27:45;;;;;;;9.68;1.50;;;;;;;3.22;62.50;99148.94;5014505;28;20036;-76
2021/03/22 03:30:27;;;;;;;9.45;1.40;;;;;;;3.21;62.15;99153.44;5021910;28;20030;-76
2021/03/22 03:32:53;;;;;;;11.63;1.75;;;;;;;3.18;62.45;99153.75;5013656;28;20462;-76
2021/03/22 03:35:19;;;;;;;12.02;1.92;;;;;;;3.13;62.77;99152.50;5033072;28;20029;-76
2021/03/22 03:37:44;;;;;;;14.98;2.42;;;;;;;3.08;63.43;99148.44;5017904;28;20156;-76
2021/03/22 03:40:13;;;;;;;7.10;1.60;;;;;;;3.13;62.74;99164.03;5033007;28;20079;-76
2021/03/22 03:42:39;;;;;;;13.20;1.63;;;;;;;2.91;63.85;99132.31;5019447;28;20030;-77
2021/03/22 03:45:09;;;;;;;11.32;1.65;;;;;;;2.81;63.90;99125.19;5029832;28;20025;-76
2021/03/22 03:47:43;;;;;;;9.77;1.63;;;;;;;2.89;63.79;99142.34;5015604;28;20026;-77
2021/03/22 03:50:12;;;;;;;16.40;2.10;;;;;;;2.90;63.66;99136.81;4993088;28;20030;-76
2021/03/22 03:52:38;;;;;;;;;;;;;;;3.03;63.77;99149.84;5004037;28;20033;-76
2021/03/22 03:55:05;;;;;;;16.10;1.95;;;;;;;3.04;64.27;99146.22;5031734;28;19908;-76
2021/03/22 03:57:31;;;;;;;13.77;1.67;;;;;;;2.88;64.22;99116.56;5014282;28;20033;-76
2021/03/22 03:59:56;;;;;;;12.27;1.40;;;;;;;2.85;64.44;99129.25;5027337;28;20029;-76
2021/03/22 04:02:21;;;;;;;7.68;1.45;;;;;;;2.93;65.13;99141.88;5024556;28;20036;-76
2021/03/22 04:04:46;;;;;;;11.32;1.42;;;;;;;3.00;65.22;99148.31;5025825;28;20049;-76
2021/03/22 04:07:12;;;;;;;7.82;1.33;;;;;;;2.91;64.99;99146.53;4995894;28;20030;-76
2021/03/22 04:09:37;;;;;;;12.38;1.90;;;;;;;2.96;65.21;99148.75;5012375;28;20121;-76
2021/03/22 04:12:02;;;;;;;14.18;1.88;;;;;;;2.90;65.00;99115.44;5022727;28;20424;-76
2021/03/22 04:14:28;;;;;;;12.15;2.33;;;;;;;3.00;64.85;99136.78;5033115;28;20029;-76
2021/03/22 04:16:54;;;;;;;6.90;1.48;;;;;;;2.94;65.20;99137.41;5001931;28;20018;-76
2021/03/22 04:19:20;;;;;;;11.48;2.25;;;;;;;3.05;65.46;99145.22;5013235;28;20475;-77
2021/03/22 04:21:46;;;;;;;15.23;1.80;;;;;;;2.99;65.84;99149.31;5013388;28;20088;-76
2021/03/22 04:24:12;;;;;;;14.48;1.40;;;;;;;2.96;65.22;99146.09;5019993;28;20442;-76
2021/03/22 04:26:38;;;;;;;9.27;1.42;;;;;;;2.99;65.45;99148.50;5002175;28;20600;-76
2021/03/22 04:29:05;;;;;;;10.15;1.83;;;;;;;2.86;65.94;99135.44;4997806;28;20068;-76
2021/03/22 04:31:31;;;;;;;12.23;2.08;;;;;;;2.84;65.70;99138.25;5015731;28;20422;-77
2021/03/22 04:33:57;;;;;;;15.48;1.83;;;;;;;2.93;65.33;99151.72;5015937;28;20049;-78
2021/03/22 04:36:28;;;;;;;8.65;1.30;;;;;;;2.94;65.83;99154.25;4994900;28;20045;-76
2021/03/22 04:38:54;;;;;;;15.40;2.30;;;;;;;2.91;65.57;99146.53;4995221;28;20671;-75
2021/03/22 04:41:19;;;;;;;13.23;2.25;;;;;;;2.91;65.29;99154.56;5013495;28;20053;-75
2021/03/22 04:43:45;;;;;;;12.45;1.50;;;;;;;2.93;65.17;99149.06;4993583;28;20026;-75
2021/03/22 04:46:10;;;;;;;10.30;1.35;;;;;;;2.95;64.93;99144.41;4994389;28;20044;-75
2021/03/22 04:48:35;;;;;;;10.18;1.35;;;;;;;2.97;64.85;99153.97;5007324;28;20088;-76
2021/03/22 04:51:01;;;;;;;16.25;1.90;;;;;;;3.00;65.60;99168.88;5010136;28;20507;-75
2021/03/22 04:53:27;;;;;;;11.88;1.52;;;;;;;2.97;65.04;99150.47;5002078;28;20030;-76
2021/03/22 04:55:53;;;;;;;13.02;1.95;;;;;;;3.01;65.61;99157.19;5003876;28;20036;-71
2021/03/22 04:58:18;;;;;;;8.75;1.30;;;;;;;3.05;65.44;99161.25;4998242;28;20022;-74
2021/03/22 05:00:45;;;;;;;14.95;1.67;;;;;;;3.12;65.50;99162.34;4989321;28;20030;-75
2021/03/22 05:03:15;;;;;;;9.25;1.48;;;;;;;3.08;64.92;99161.78;4998375;28;20026;-75
2021/03/22 05:05:41;;;;;;;9.23;1.10;;;;;;;3.12;65.29;99157.00;4991308;28;20030;-73
2021/03/22 05:08:10;;;;;;;6.55;1.42;;;;;;;3.07;65.43;99153.94;5005202;28;20407;-74
2021/03/22 05:10:38;;;;;;;7.78;1.73;;;;;;;3.09;65.84;99173.31;5011666;28;20483;-75
2021/03/22 05:13:05;;;;;;;9.18;1.40;;;;;;;2.97;66.22;99167.31;4987754;28;20035;-73
2021/03/22 05:15:31;;;;;;;9.05;1.40;;;;;;;3.04;65.35;99164.94;5008819;28;20095;-74
2021/03/22 05:17:57;;;;;;;11.43;1.88;;;;;;;3.10;65.74;99185.72;5009192;28;20638;-74
2021/03/22 05:20:30;;;;;;;10.45;1.52;;;;;;;3.09;65.46;99162.63;5006959;28;20105;-76
2021/03/22 05:22:56;;;;;;;13.57;1.70;;;;;;;3.14;65.15;99176.41;5008443;28;20441;-74
2021/03/22 05:25:21;;;;;;;7.85;1.20;;;;;;;3.10;65.13;99168.84;5008972;28;20077;-76
2021/03/22 05:27:48;;;;;;;12.32;1.45;;;;;;;3.14;65.56;99192.44;5009663;28;20041;-75
2021/03/22 05:30:15;;;;;;;11.07;1.80;;;;;;;3.20;65.20;99186.53;4975899;28;20026;-73
2021/03/22 05:32:40;;;;;;;7.05;1.33;;;;;;;3.19;64.70;99203.53;5008696;28;20065;-73
2021/03/22 05:35:20;;;;;;;12.45;2.03;;;;;;;3.16;64.79;99201.16;5004622;28;20054;-74
2021/03/22 05:37:46;;;;;;;12.52;1.80;;;;;;;3.08;65.09;99201.06;4998387;28;20038;-76
2021/03/22 05:40:20;;;;;;;8.98;1.45;;;;;;;3.19;65.09;99206.22;4991883;28;20029;-76
2021/03/22 05:43:04;;;;;;;13.68;1.85;;;;;;;3.25;65.08;99204.81;4999762;28;20037;-75
2021/03/22 05:45:52;;;;;;;5.88;1.40;;;;;;;3.14;65.35;99203.13;4993775;28;20037;-71
2021/03/22 05:48:37;;;;;;;10.15;1.40;;;;;;;3.21;65.99;99206.91;5010135;28;20129;-71
2021/03/22 05:51:24;;;;;;;10.18;1.70;;;;;;;3.21;65.67;99219.44;4984493;28;20396;-72
2021/03/22 05:53:59;;;;;;;10.20;1.60;;;;;;;3.19;65.64;99216.91;5011801;28;20061;-73
2021/03/22 05:56:35;;;;;;;11.13;2.05;;;;;;;3.21;65.51;99214.94;5009845;28;20076;-72
2021/03/22 05:59:30;;;;;;;14.30;1.45;;;;;;;3.21;66.28;99214.94;5011610;28;20092;-72
2021/03/22 06:02:02;;;;;;;12.48;1.92;;;;;;;3.20;66.60;99218.59;5014017;28;20554;-72
2021/03/22 06:04:37;;;;;;;8.27;2.00;;;;;;;3.19;66.63;99206.22;5012798;28;20046;-71
2021/03/22 06:07:05;;;;;;;13.73;1.85;;;;;;;3.28;67.06;99221.38;4995519;28;20452;-73
2021/03/22 06:09:39;;;;;;;16.17;2.42;;;;;;;3.28;66.86;99224.06;5015368;28;20026;-73
2021/03/22 06:12:22;;;;;;;20.30;2.33;;;;;;;3.29;67.26;99228.41;5016443;28;20026;-74
2021/03/22 06:14:53;;;;;;;15.65;1.98;;;;;;;3.27;67.41;99234.91;5013307;28;20402;-75
2021/03/22 06:17:33;;;;;;;9.88;1.98;;;;;;;3.32;67.85;99231.78;5003765;28;20030;-74
2021/03/22 06:20:01;;;;;;;12.85;1.50;;;;;;;3.23;67.90;99225.50;4996885;28;20108;-72
2021/03/22 06:22:31;;;;;;;9.45;1.80;;;;;;;3.30;67.87;99231.91;5016008;28;20026;-75
2021/03/22 06:24:59;;;;;;;11.50;1.65;;;;;;;3.34;67.90;99241.34;4995272;28;20093;-73
2021/03/22 06:27:25;;;;;;;11.93;2.03;;;;;;;3.29;67.89;99238.28;4995725;28;20038;-71
2021/03/22 06:29:55;;;;;;;10.45;1.92;;;;;;;3.29;68.15;99244.47;5011702;28;20033;-72
2021/03/22 06:32:28;;;;;;;16.33;2.17;;;;;;;3.22;68.54;99222.00;4999926;28;20072;-74
2021/03/22 06:35:03;;;;;;;12.50;1.70;;;;;;;3.33;67.96;99231.66;4993668;28;20025;-74
2021/03/22 06:37:32;;;;;;;11.07;1.75;;;;;;;3.39;67.67;99243.59;5007672;28;20535;-74
2021/03/22 06:40:26;;;;;;;12.50;2.38;;;;;;;3.39;68.04;99240.91;5007190;28;20034;-74
2021/03/22 06:43:16;;;;;;;15.77;2.47;;;;;;;3.47;68.18;99246.38;5014853;28;20380;-75
2021/03/22 06:45:45;;;;;;;;;;;;;;;3.53;67.36;99245.78;4995299;28;20026;-73
2021/03/22 06:48:23;;;;;;;10.35;1.92;;;;;;;3.61;67.03;99248.53;5027864;28;20375;-75
2021/03/22 06:50:51;;;;;;;12.75;1.55;;;;;;;3.61;68.23;99245.88;4989379;28;20431;-75
2021/03/22 06:53:43;;;;;;;9.35;1.90;;;;;;;3.58;67.86;99262.22;5015213;28;20034;-71
2021/03/22 06:56:15;;;;;;;10.88;1.70;;;;;;;3.65;68.14;99262.50;5007073;28;20034;-72
2021/03/22 06:58:41;;;;;;;10.93;1.70;;;;;;;3.70;67.24;99266.41;5002127;28;20116;-74
2021/03/22 07:01:21;;;;;;;13.00;1.70;;;;;;;3.76;67.96;99266.81;4998622;28;20026;-74
2021/03/22 07:03:47;;;;;;;12.52;2.17;;;;;;;3.70;67.95;99253.03;5008958;28;20392;-74
2021/03/22 07:06:24;;;;;;;13.55;2.22;;;;;;;3.89;67.52;99256.59;5011086;28;20495;-72
2021/03/22 07:08:51;;;;;;;11.35;1.63;;;;;;;3.98;67.07;99254.84;5006812;28;20040;-75
2021/03/22 07:11:20;;;;;;;14.13;2.35;;;;;;;4.04;67.31;99265.81;5001896;28;20077;-73
2021/03/22 07:13:52;;;;;;;16.70;2.45;;;;;;;4.19;67.27;99268.78;5000143;28;20022;-75
2021/03/22 07:16:20;;;;;;;15.30;2.35;;;;;;;4.21;67.13;99265.97;5008517;28;20383;-71
2021/03/22 07:19:06;;;;;;;19.45;3.05;;;;;;;4.18;68.01;99267.97;5001011;28;20103;-72
2021/03/22 07:21:33;;;;;;;21.50;2.22;;;;;;;4.17;68.58;99260.94;5004184;28;20079;-74
2021/03/22 07:24:06;;;;;;;18.13;2.25;;;;;;;4.38;67.41;99274.03;5005914;28;20018;-70
2021/03/22 07:26:48;;;;;;;23.15;3.05;;;;;;;4.29;67.76;99274.09;5003729;28;20030;-69
2021/03/22 07:29:50;;;;;;;11.32;2.20;;;;;;;4.47;67.67;99274.94;4998466;28;20022;-71
2021/03/22 07:32:40;;;;;;;12.77;2.15;;;;;;;4.50;67.92;99276.47;5008204;28;20033;-73
2021/03/22 07:35:11;;;;;;;13.52;2.15;;;;;;;4.54;67.31;99280.56;5004685;28;20427;-74
2021/03/22 07:38:05;;;;;;;14.23;2.22;;;;;;;4.58;66.57;99269.38;4997532;28;20038;-72
2021/03/22 07:40:46;;;;;;;13.48;2.50;;;;;;;4.64;66.40;99275.09;5011886;28;20025;-74
2021/03/22 07:43:29;;;;;;;14.55;2.40;;;;;;;4.94;66.00;99274.69;5006899;28;20484;-72
2021/03/22 07:46:06;;;;;;;13.23;1.70;;;;;;;4.92;64.87;99255.22;5003786;28;20631;-73
2021/03/22 07:49:02;;;;;;;12.50;2.50;;;;;;;5.20;64.29;99272.03;5002262;28;20509;-73
2021/03/22 07:52:09;;;;;;;9.75;2.10;;;;;;;5.61;64.19;99276.81;5011035;28;20033;-73
2021/03/22 07:54:53;;;;;;;19.60;2.33;;;;;;;6.13;62.41;99276.69;5012994;28;20096;-71
2021/03/22 07:57:47;;;;;;;14.13;2.22;;;;;;;6.26;61.00;99278.91;5007584;28;20373;-71
2021/03/22 08:00:58;;;;;;;11.80;2.03;;;;;;;6.58;61.28;99276.31;5008593;28;20037;-71
2021/03/22 08:04:01;;;;;;;17.05;2.13;;;;;;;6.50;61.21;99279.00;4985557;28;20045;-71
2021/03/22 08:06:50;;;;;;;11.98;2.15;;;;;;;6.19;61.93;99276.06;5009764;28;20049;-71
2021/03/22 08:09:38;;;;;;;11.45;2.08;;;;;;;6.20;61.74;99275.03;5003880;28;20129;-71
2021/03/22 08:12:07;;;;;;;11.77;1.73;;;;;;;6.21;61.37;99294.69;5007825;28;20037;-71
2021/03/22 08:14:37;;;;;;;8.38;1.73;;;;;;;6.05;61.99;99284.72;5011895;28;20041;-74
2021/03/22 08:17:12;;;;;;;14.50;1.83;;;;;;;6.08;61.83;99289.81;5009035;28;20507;-76
2021/03/22 08:20:13;;;;;;;11.38;2.35;;;;;;;6.05;63.08;99298.16;5006907;28;20392;-75
2021/03/22 08:23:36;;;;;;;11.88;2.03;;;;;;;6.02;62.69;99310.06;4984850;28;20491;-74
2021/03/22 08:26:05;;;;;;;12.30;1.88;;;;;;;6.05;63.04;99303.53;4971115;28;20031;-74
2021/03/22 08:28:43;;;;;;;10.55;1.90;;;;;;;5.91;62.82;99316.53;4969531;28;20441;-73
2021/03/22 08:31:17;;;;;;;16.35;2.80;;;;;;;5.96;63.32;99317.94;4988895;28;20545;-71
2021/03/22 08:33:44;;;;;;;15.35;2.22;;;;;;;5.72;63.88;99306.88;5012570;28;20034;-72
2021/03/22 08:36:38;;;;;;;12.15;2.25;;;;;;;5.94;63.71;99326.16;5010017;28;20030;-70
2021/03/22 08:39:20;;;;;;;14.02;2.15;;;;;;;6.22;62.78;99329.47;4993355;28;20026;-70
2021/03/22 08:42:00;;;;;;;15.82;2.22;;;;;;;6.58;61.67;99323.88;4994209;28;20037;-72
2021/03/22 08:44:34;;;;;;;10.02;1.85;;;;;;;6.98;60.45;99333.00;4996316;28;20041;-70
2021/03/22 08:47:06;;;;;;;10.52;1.92;;;;;;;7.22;60.32;99338.34;4987108;28;20034;-75
2021/03/22 08:49:45;;;;;;;16.55;1.85;;;;;;;7.26;59.46;99341.56;5011999;28;20033;-75
2021/03/22 08:52:56;;;;;;;13.20;1.92;;;;;;;6.78;60.00;99341.34;4999108;28;20476;-71
2021/03/22 08:55:23;;;;;;;13.32;1.80;;;;;;;6.65;60.15;99337.47;4982902;28;20036;-71
2021/03/22 08:57:59;;;;;;;11.77;1.75;;;;;;;6.68;61.27;99342.50;5002644;28;20030;-71
2021/03/22 09:00:40;;;;;;;13.95;1.90;;;;;;;6.45;61.46;99345.00;4992630;28;20029;-71
2021/03/22 09:03:14;;;;;;;10.65;1.98;;;;;;;6.38;61.70;99349.34;4995001;28;20059;-72
2021/03/22 09:06:01;;;;;;;12.45;2.45;;;;;;;6.31;62.04;99351.81;4999485;28;20042;-72
2021/03/22 09:08:27;;;;;;;13.02;2.42;;;;;;;6.57;62.33;99349.03;5005008;28;20034;-76
2021/03/22 09:10:53;;;;;;;8.88;1.90;;;;;;;6.95;60.50;99347.63;5019081;23;21219;-75
2021/03/22 09:13:21;;;;;;;14.10;2.75;;;;;;;7.28;58.35;99355.69;5019910;28;20505;-76
2021/03/22 09:16:22;;;;;;;13.68;2.17;;;;;;;7.78;58.57;99353.78;5025486;28;20030;-77
2021/03/22 09:19:24;;;;;;;9.48;2.00;;;;;;;8.11;56.98;99344.59;4998177;28;20048;-76
2021/03/22 09:22:11;;;;;;;8.68;1.88;;;;;;;8.53;55.48;99346.09;5012061;28;20044;-74
2021/03/22 09:24:40;;;;;;;11.10;1.80;;;;;;;9.56;53.89;99341.28;5023671;28;20025;-75
2021/03/22 09:27:20;;;;;;;12.50;2.33;;;;;;;10.39;53.20;99351.03;5028581;28;20033;-77
2021/03/22 09:30:10;;;;;;;7.50;1.38;;;;;;;10.90;50.68;99336.66;5016937;28;20034;-76
2021/03/22 09:32:35;;;;;;;10.13;1.83;;;;;;;11.32;49.61;99345.81;5023961;28;20120;-74
2021/03/22 09:35:16;;;;;;;9.13;2.08;;;;;;;10.96;50.51;99341.28;5024926;28;20104;-71
2021/03/22 09:38:20;;;;;;;13.75;2.03;;;;;;;10.32;50.98;99336.59;5048548;28;20385;-75
2021/03/22 09:40:49;;;;;;;11.98;2.60;;;;;;;9.81;52.34;99340.03;5015188;28;20026;-74
2021/03/22 09:43:17;;;;;;;8.47;1.57;;;;;;;9.48;52.70;99352.16;5030539;28;20083;-72
2021/03/22 09:45:52;;;;;;;8.77;1.73;;;;;;;8.91;53.40;99357.03;5024893;28;20368;-73
2021/03/22 09:48:20;;;;;;;9.77;1.65;;;;;;;8.34;55.21;99368.91;5024450;28;20030;-74
2021/03/22 09:50:50;;;;;;;7.28;2.13;;;;;;;8.22;55.66;99356.84;5024765;28;20502;-75
2021/03/22 09:53:27;;;;;;;12.25;1.98;;;;;;;8.07;56.31;99356.75;5019030;28;20050;-75
2021/03/22 09:55:52;;;;;;;8.32;1.65;;;;;;;8.13;56.64;99357.88;5017771;28;20021;-76
2021/03/22 09:58:26;;;;;;;7.97;1.90;;;;;;;8.18;55.73;99360.06;5021984;28;20541;-69
2021/03/22 10:01:05;;;;;;;8.35;1.30;;;;;;;8.26;55.47;99366.25;5016751;28;20037;-73
2021/03/22 10:03:37;;;;;;;10.05;1.80;;;;;;;7.96;56.01;99369.72;5023898;28;20095;-71
2021/03/22 10:06:12;;;;;;;9.10;1.70;;;;;;;7.96;56.70;99367.88;5029889;28;20423;-76
2021/03/22 10:08:40;;;;;;;9.30;1.48;;;;;;;7.88;57.66;99354.41;5016818;28;20025;-73
2021/03/22 10:11:20;;;;;;;13.50;1.55;;;;;;;8.06;56.94;99373.91;5032636;28;20060;-74
2021/03/22 10:13:48;;;;;;;12.27;2.33;;;;;;;8.88;56.63;99368.19;5034099;28;20022;-73
2021/03/22 10:16:36;;;;;;;10.57;1.92;;;;;;;9.09;55.00;99364.81;5018644;28;20491;-75
2021/03/22 10:19:12;;;;;;;10.67;1.63;;;;;;;8.95;55.03;99369.13;5013225;28;20098;-74
2021/03/22 10:21:46;;;;;;;12.40;2.15;;;;;;;9.75;53.60;99366.97;5014820;28;20276;-71
2021/03/22 10:24:23;;;;;;;9.35;1.58;;;;;;;9.76;53.49;99366.75;5019644;28;20029;-73
2021/03/22 10:26:53;;;;;;;7.30;1.63;;;;;;;9.70;52.95;99372.91;5026055;28;20669;-70
2021/03/22 10:29:21;;;;;;;10.15;1.63;;;;;;;9.86;53.02;99366.50;5035772;28;20395;-74
2021/03/22 10:31:56;;;;;;;9.20;1.60;;;;;;;9.32;53.97;99364.78;5025346;28;20025;-72
2021/03/22 10:34:25;;;;;;;7.10;1.50;;;;;;;9.35;53.60;99359.06;5022301;28;20155;-75
2021/03/22 10:36:52;;;;;;;11.70;1.58;;;;;;;9.48;53.17;99352.16;5015594;28;20128;-72
2021/03/22 10:39:40;;;;;;;8.50;1.88;;;;;;;10.59;52.18;99353.16;5018524;28;20095;-75
2021/03/22 10:42:23;;;;;;;6.05;1.63;;;;;;;12.55;46.10;99348.91;5019358;28;20025;-77
2021/03/22 10:44:49;;;;;;;4.70;1.35;;;;;;;14.35;43.78;99342.50;5030235;28;20036;-78
2021/03/22 10:47:17;;;;;;;9.02;1.58;;;;;;;14.00;43.07;99333.81;5031866;28;20029;-73
2021/03/22 10:49:43;;;;;;;6.95;1.60;;;;;;;14.33;42.71;99324.72;5023635;28;20034;-73
2021/03/22 10:52:30;;;;;;;3.70;1.10;;;;;;;13.44;43.97;99351.44;5020583;28;20080;-73
2021/03/22 10:54:56;;;;;;;5.35;1.17;;;;;;;12.59;45.63;99352.88;5026343;28;20025;-73
2021/03/22 10:57:29;;;;;;;6.07;1.30;;;;;;;11.34;47.30;99347.28;5023455;28;20025;-74
2021/03/22 10:59:57;;;;;;;7.20;1.30;;;;;;;10.89;48.52;99346.63;5011546;28;20037;-73
2021/03/22 11:02:32;;;;;;;5.35;1.42;;;;;;;10.71;49.17;99348.91;5022024;28;20451;-74
2021/03/22 11:05:03;;;;;;;6.72;1.33;;;;;;;10.92;49.23;99340.81;5023684;28;20482;-74
2021/03/22 11:07:29;;;;;;;5.57;1.73;;;;;;;11.78;48.45;99348.03;5018686;28;20041;-75
2021/03/22 11:10:12;;;;;;;5.28;1.30;;;;;;;12.33;45.76;99357.16;5021211;28;20021;-76
2021/03/22 11:12:42;;;;;;;5.10;1.23;;;;;;;12.50;46.10;99344.94;5014440;28;20514;-73
2021/03/22 11:15:16;;;;;;;5.85;1.90;;;;;;;12.21;47.02;99348.75;5020877;28;20124;-73
2021/03/22 11:17:43;;;;;;;6.78;1.70;;;;;;;11.81;47.55;99344.91;5023065;28;20105;-69
2021/03/22 11:20:09;;;;;;;5.88;1.77;;;;;;;11.67;47.84;99351.28;5021576;28;20108;-70
2021/03/22 11:22:40;;;;;;;7.95;1.42;;;;;;;10.85;48.61;99349.94;5032887;28;20123;-70
2021/03/22 11:25:31;;;;;;;9.30;1.90;;;;;;;10.39;50.70;99345.63;5044139;28;20132;-71
2021/03/22 11:28:19;;;;;;;11.57;1.80;;;;;;;9.82;51.33;99352.53;5031146;28;20036;-71
2021/03/22 11:30:53;;;;;;;8.75;1.65;;;;;;;9.28;53.33;99358.09;5025219;28;20067;-70
2021/03/22 11:33:24;;;;;;;6.32;1.83;;;;;;;9.14;53.76;99358.88;5018179;28;20032;-70
2021/03/22 11:36:14;;;;;;;6.20;1.30;;;;;;;8.76;54.01;99364.19;5049220;28;20033;-71
2021/03/22 11:38:52;;;;;;;;;;;;;;;8.27;54.76;99370.63;5018792;28;20036;-70
2021/03/22 11:41:26;;;;;;;10.13;1.80;;;;;;;8.04;55.82;99358.91;5022681;28;19917;-70
2021/03/22 11:44:06;;;;;;;9.68;1.75;;;;;;;7.87;56.78;99364.38;5027024;28;20034;-76
2021/03/22 11:46:34;;;;;;;5.47;1.20;;;;;;;7.68;57.53;99354.81;5030979;28;20479;-77
2021/03/22 11:48:59;;;;;;;6.45;1.35;;;;;;;7.46;57.65;99344.75;5016427;28;20044;-73
2021/03/22 11:51:24;;;;;;;5.72;1.30;;;;;;;7.40;57.54;99345.44;5019769;28;20025;-77
2021/03/22 11:53:59;;;;;;;5.80;1.48;;;;;;;7.48;57.33;99353.50;5026366;28;20478;-77
2021/03/22 11:56:28;;;;;;;10.38;1.58;;;;;;;7.69;57.27;99352.97;5025838;28;20040;-74
2021/03/22 11:59:07;;;;;;;5.40;1.40;;;;;;;7.94;56.55;99351.06;5005680;28;20072;-73
2021/03/22 12:01:33;;;;;;;8.45;1.63;;;;;;;8.09;56.39;99365.47;5026590;28;20360;-68
2021/03/22 12:04:04;;;;;;;7.95;1.67;;;;;;;8.00;56.20;99344.97;5019161;28;20033;-74
2021/03/22 12:06:31;;;;;;;7.22;1.50;;;;;;;8.18;56.53;99355.53;5023544;28;20051;-76